createdAt,value
2022-09-12T00:02:41.638Z,95868.84
2022-09-12T00:07:43.880Z,95878.81
2022-09-12T00:12:46.062Z,95893.28
2022-09-12T00:17:48.126Z,95885.56
2022-09-12T00:22:50.206Z,95879.88
2022-09-12T00:27:52.638Z,95903.44
2022-09-12T00:32:55.073Z,95865.00
2022-09-12T00:37:57.189Z,95870.91
2022-09-12T00:42:59.299Z,95881.75
2022-09-12T00:48:04.601Z,95887.72
2022-09-12T00:53:09.238Z,95852.03
2022-09-12T00:58:20.587Z,95860.31
2022-09-12T01:03:24.126Z,95882.88
2022-09-12T01:08:27.615Z,95864.34
2022-09-12T01:13:30.440Z,95870.09
2022-09-12T01:19:01.942Z,95821.19
2022-09-12T01:24:10.143Z,95873.13
2022-09-12T01:29:31.020Z,95867.44
2022-09-12T01:34:46.350Z,95832.75
2022-09-12T01:40:17.315Z,95849.50
2022-09-12T01:45:33.744Z,95811.31
2022-09-12T01:50:42.546Z,95831.31
2022-09-12T01:55:51.801Z,95849.00
2022-09-12T02:01:03.210Z,95857.13
2022-09-12T02:06:47.587Z,95837.97
2022-09-12T02:11:52.736Z,95819.16
2022-09-12T02:17:05.320Z,95814.63
2022-09-12T02:22:12.379Z,95812.25
2022-09-12T02:27:20.008Z,95809.00
2022-09-12T02:32:51.766Z,95787.97
2022-09-12T02:38:09.739Z,95798.94
2022-09-12T02:43:12.081Z,95831.16
2022-09-12T02:48:21.660Z,95794.81
2022-09-12T02:53:24.639Z,95821.44
2022-09-12T02:58:31.754Z,95794.41
2022-09-12T03:04:08.147Z,95838.91
2022-09-12T03:09:26.852Z,95824.81
2022-09-12T03:14:50.929Z,95846.56
2022-09-12T03:20:37.704Z,95859.28
2022-09-12T03:25:52.167Z,95859.53
2022-09-12T03:30:56.676Z,95856.19
2022-09-12T03:35:59.120Z,95837.59
2022-09-12T03:41:01.449Z,95852.97
2022-09-12T03:46:03.733Z,95881.09
2022-09-12T03:51:08.506Z,95868.50
2022-09-12T03:56:13.892Z,95873.22
2022-09-12T04:01:18.362Z,95882.34
2022-09-12T04:06:23.211Z,95872.75
2022-09-12T04:11:25.649Z,95878.31
2022-09-12T04:16:28.013Z,95867.66
2022-09-12T04:21:30.215Z,95865.28
2022-09-12T04:26:32.336Z,95872.34
2022-09-12T04:31:34.608Z,95888.66
2022-09-12T04:36:37.459Z,95877.78
2022-09-12T04:41:42.126Z,95879.06
2022-09-12T04:46:46.935Z,95886.22
2022-09-12T04:51:49.447Z,95890.25
2022-09-12T04:56:52.755Z,95889.66
2022-09-12T05:01:55.129Z,95900.63
2022-09-12T05:06:57.492Z,95897.31
2022-09-12T05:12:04.650Z,95898.19
2022-09-12T05:17:07.616Z,95875.97
2022-09-12T05:22:10.120Z,95881.25
2022-09-12T05:27:12.208Z,95882.50
2022-09-12T05:32:14.418Z,95907.91
2022-09-12T05:37:16.634Z,95910.69
2022-09-12T05:42:18.837Z,95871.97
2022-09-12T05:47:21.214Z,95877.50
2022-09-12T05:52:27.810Z,95876.88
2022-09-12T05:57:30.044Z,95848.34
2022-09-12T06:02:35.158Z,95853.06
2022-09-12T06:07:37.882Z,95822.59
2022-09-12T06:12:40.264Z,95831.03
2022-09-12T06:17:42.384Z,95837.81
2022-09-12T06:22:44.618Z,95841.19
2022-09-12T06:27:47.813Z,95839.16
2022-09-12T06:32:50.026Z,95836.31
2022-09-12T06:37:52.533Z,95823.69
2022-09-12T06:42:54.816Z,95846.75
2022-09-12T06:48:13.357Z,95826.53
2022-09-12T06:53:15.585Z,95843.75
2022-09-12T06:58:17.704Z,95830.88
2022-09-12T07:03:19.921Z,95864.00
2022-09-12T07:08:22.422Z,95827.00
2022-09-12T07:13:24.816Z,95869.25
2022-09-12T07:18:27.479Z,95836.66
2022-09-12T07:23:30.598Z,95889.13
2022-09-12T07:28:34.835Z,95885.69
2022-09-12T07:33:37.961Z,95874.31
2022-09-12T07:38:40.787Z,95850.78
2022-09-12T07:43:43.033Z,95861.00
2022-09-12T07:48:46.134Z,95871.78
2022-09-12T07:53:49.432Z,95855.38
2022-09-12T07:58:51.697Z,95849.66
2022-09-12T08:03:57.159Z,95866.53
2022-09-12T08:09:00.261Z,95860.66
2022-09-12T08:14:05.894Z,95852.06
2022-09-12T08:19:08.266Z,95845.78
2022-09-12T08:24:13.211Z,95852.22
2022-09-12T08:29:15.678Z,95840.72
2022-09-12T08:34:19.426Z,95852.78
2022-09-12T08:39:22.362Z,95844.38
2022-09-12T08:44:45.261Z,95822.81
2022-09-12T08:50:12.340Z,95837.22
2022-09-12T08:55:34.651Z,95840.41
2022-09-12T09:01:07.566Z,95819.53
2022-09-12T09:06:42.529Z,95816.59
2022-09-12T09:12:12.499Z,95827.06
2022-09-12T09:17:29.290Z,95832.75
2022-09-12T09:22:43.762Z,95834.97
2022-09-12T09:28:11.902Z,95827.34
2022-09-12T09:33:26.748Z,95823.97
2022-09-12T09:38:42.633Z,95818.34
2022-09-12T09:43:45.262Z,95821.97
2022-09-12T09:48:51.612Z,95825.44
2022-09-12T09:54:02.125Z,95767.22
2022-09-12T09:59:16.424Z,95796.19
2022-09-12T10:04:32.757Z,95790.00
2022-09-12T10:09:36.604Z,95791.38
2022-09-12T10:14:41.415Z,95790.13
2022-09-12T10:19:45.545Z,95787.38
2022-09-12T10:25:01.694Z,95813.91
2022-09-12T10:30:15.933Z,95812.75
2022-09-12T10:35:24.911Z,95796.66
2022-09-12T10:40:31.951Z,95777.09
2022-09-12T10:45:37.918Z,95783.25
2022-09-12T10:50:42.586Z,95815.75
2022-09-12T10:56:09.146Z,95798.34
2022-09-12T11:01:46.222Z,95770.88
2022-09-12T11:07:26.027Z,95838.91
2022-09-12T11:12:50.012Z,95817.44
2022-09-12T11:18:25.155Z,95786.25
2022-09-12T11:24:03.050Z,95803.75
2022-09-12T11:29:36.249Z,95800.66
2022-09-12T11:34:47.827Z,95805.97
2022-09-12T11:39:55.635Z,95776.09
2022-09-12T11:45:16.575Z,95791.41
2022-09-12T11:50:27.190Z,95803.91
2022-09-12T11:55:39.957Z,95724.91
2022-09-12T12:00:47.470Z,95742.88
2022-09-12T12:06:03.274Z,95810.59
2022-09-12T12:11:08.336Z,95760.78
2022-09-12T12:16:22.102Z,95804.06
2022-09-12T12:21:46.700Z,95793.50
2022-09-12T12:26:59.046Z,95733.81
2022-09-12T12:32:04.402Z,95782.47
2022-09-12T12:37:22.196Z,95778.50
2022-09-12T12:42:34.018Z,95788.59
2022-09-12T12:47:36.272Z,95788.44
2022-09-12T12:53:25.507Z,95778.44
2022-09-12T12:58:42.927Z,95749.06
2022-09-12T13:03:53.925Z,95780.06
2022-09-12T13:09:09.715Z,95719.25
2022-09-12T13:14:43.118Z,95782.03
2022-09-12T13:19:47.533Z,95728.88
2022-09-12T13:24:53.811Z,95740.13
2022-09-12T13:30:13.947Z,95725.06
2022-09-12T13:35:42.858Z,95784.63
2022-09-12T13:41:15.841Z,95793.75
2022-09-12T13:46:46.556Z,95738.56
2022-09-12T13:52:18.674Z,95770.63
2022-09-12T13:58:00.215Z,95751.06
2022-09-12T14:03:56.742Z,95720.63
2022-09-12T14:09:01.678Z,95759.56
2022-09-12T14:14:18.852Z,95776.25
2022-09-12T14:19:25.100Z,95776.84
2022-09-12T14:24:27.827Z,95766.06
2022-09-12T14:29:31.363Z,95718.22
2022-09-12T14:34:33.688Z,95751.47
2022-09-12T14:39:46.033Z,95787.13
2022-09-12T14:44:59.318Z,95792.63
2022-09-12T14:50:01.850Z,95797.31
2022-09-12T14:55:22.212Z,95794.44
2022-09-12T15:00:27.430Z,95757.31
2022-09-12T15:05:30.484Z,95756.00
2022-09-12T15:10:37.912Z,95762.31
2022-09-12T15:15:42.306Z,95766.22
2022-09-12T15:20:46.640Z,95795.78
2022-09-12T15:25:49.089Z,95763.56
2022-09-12T15:30:53.644Z,95780.69
2022-09-12T15:35:56.096Z,95774.19
2022-09-12T15:40:58.216Z,95765.63
2022-09-12T15:46:04.704Z,95761.53
2022-09-12T15:51:15.250Z,95793.69
2022-09-12T15:56:21.379Z,95791.38
2022-09-12T16:01:23.951Z,95788.00
2022-09-12T16:06:27.973Z,95757.88
2022-09-12T16:11:30.310Z,95776.81
2022-09-12T16:16:32.898Z,95768.31
2022-09-12T16:21:38.403Z,95785.72
2022-09-12T16:26:40.869Z,95771.34
2022-09-12T16:31:46.232Z,95807.50
2022-09-12T16:36:48.546Z,95779.19
2022-09-12T16:42:27.604Z,95811.34
2022-09-12T16:47:32.511Z,95764.88
2022-09-12T16:52:35.541Z,95801.00
2022-09-12T16:57:38.291Z,95843.50
2022-09-12T17:02:40.720Z,95817.44
2022-09-12T17:07:43.137Z,95817.72
2022-09-12T17:12:45.406Z,95786.19
2022-09-12T17:17:47.839Z,95820.69
2022-09-12T17:22:50.001Z,95798.34
2022-09-12T17:27:52.217Z,95848.41
2022-09-12T17:32:54.657Z,95814.13
2022-09-12T17:37:56.858Z,95855.38
2022-09-12T17:42:59.289Z,95820.28
2022-09-12T17:48:03.102Z,95809.75
2022-09-12T17:53:07.100Z,95855.16
2022-09-12T17:58:11.274Z,95885.53
2022-09-12T18:03:17.991Z,95849.56
2022-09-12T18:08:26.235Z,95892.97
2022-09-12T18:13:29.863Z,95871.88
2022-09-12T18:18:38.188Z,95868.22
2022-09-12T18:23:40.531Z,95870.72
2022-09-12T18:28:44.396Z,95875.22
2022-09-12T18:33:46.921Z,95894.41
2022-09-12T18:38:49.481Z,95882.09
2022-09-12T18:44:02.759Z,95892.34
2022-09-12T18:49:05.020Z,95874.16
2022-09-12T18:54:13.162Z,95924.22
2022-09-12T18:59:33.882Z,95919.50
2022-09-12T19:04:37.223Z,95876.31
2022-09-12T19:09:39.730Z,95917.84
2022-09-12T19:14:41.872Z,95898.06
2022-09-12T19:19:44.357Z,95875.44
2022-09-12T19:24:46.645Z,95894.81
2022-09-12T19:29:49.176Z,95885.22
2022-09-12T19:34:51.511Z,95911.13
2022-09-12T19:39:53.721Z,95914.72
2022-09-12T19:44:56.183Z,95889.00
2022-09-12T19:49:58.535Z,95928.59
2022-09-12T19:55:00.645Z,95892.66
2022-09-12T20:00:05.945Z,95899.34
2022-09-12T20:05:10.937Z,95906.94
2022-09-12T20:10:44.070Z,95861.31
2022-09-12T20:15:55.712Z,95912.91
2022-09-12T20:20:58.367Z,95874.03
2022-09-12T20:26:05.017Z,95882.50
2022-09-12T20:31:15.626Z,95936.47
2022-09-12T20:36:20.771Z,95914.72
2022-09-12T20:41:23.931Z,95936.06
2022-09-12T20:46:28.347Z,95923.44
2022-09-12T20:51:30.869Z,95911.16
2022-09-12T20:56:35.854Z,95920.59
2022-09-12T21:01:38.170Z,95938.53
2022-09-12T21:06:41.086Z,95951.03
2022-09-12T21:11:43.268Z,95973.59
2022-09-12T21:16:45.415Z,95900.69
2022-09-12T21:21:48.011Z,95974.75
2022-09-12T21:26:50.345Z,95915.28
2022-09-12T21:31:52.643Z,95909.44
2022-09-12T21:36:54.784Z,95956.06
2022-09-12T21:41:57.238Z,95935.41
2022-09-12T21:46:59.530Z,95904.69
2022-09-12T21:52:02.096Z,95901.97
2022-09-12T21:57:04.686Z,95936.53
2022-09-12T22:02:08.887Z,95929.47
2022-09-12T22:07:11.344Z,95936.41
2022-09-12T22:12:13.919Z,95932.81
2022-09-12T22:17:16.651Z,95888.47
2022-09-12T22:22:37.175Z,95877.34
2022-09-12T22:27:39.660Z,95910.22
2022-09-12T22:32:42.042Z,95903.09
2022-09-12T22:37:44.931Z,95894.59
2022-09-12T22:42:47.163Z,95923.19
2022-09-12T22:47:49.740Z,95890.13
2022-09-12T22:52:53.262Z,95902.41
2022-09-12T22:57:55.620Z,95840.47
2022-09-12T23:02:58.582Z,95855.22
2022-09-12T23:08:01.095Z,95881.69
2022-09-12T23:13:03.802Z,95891.38
2022-09-12T23:18:06.188Z,95892.06
2022-09-12T23:23:08.443Z,95887.72
2022-09-12T23:28:10.569Z,95871.47
2022-09-12T23:33:12.654Z,95860.63
2022-09-12T23:38:16.199Z,95875.06
2022-09-12T23:43:18.488Z,95880.38
2022-09-12T23:48:20.745Z,95877.44
2022-09-12T23:53:24.059Z,95877.56
2022-09-12T23:58:26.491Z,95876.22
